Equality — ODTX — position and weather

sailwx.info

Track history (hours):
 
Tides and Currents Weather Stations Pressure Air Temp Water Temp Dewpoint Dewpoint Depression Visibility Wind Speed Wind Dir Waves Ship Positions

Equality

Last reported at 2017-Jun-27 17:00 UTC. Time now 2017-Jun-28 19:31 UTC.
Position N 36°38' E 023°26'.

Length 124 m; draft 4.8 m.

Type: Cargo ship. MMSI: 450501000.

Date/timePositionNaut miles runAvg speedWind from/ knotsBaromVisibWave heightAir tempDewpointWater temp
2017-Jun-27 17:00N 36°38' E 023°26'5 9.5
2017-Jun-27 16:30N 36°42' E 023°30'5 9.5
2017-Jun-27 16:00N 36°46' E 023°33'5 9.5
2017-Jun-27 15:30N 36°50' E 023°36'5 9.6
2017-Jun-27 15:00N 36°53' E 023°40'10 9.5
2017-Jun-27 14:00N 37°01' E 023°48'5 9.5
2017-Jun-27 13:31N 37°04' E 023°52'5 9.8
2017-Jun-27 13:00N 37°08' E 023°56'510.3
2017-Jun-27 12:28N 37°12' E 024°00'167 8.7
2017-Jun-26 17:09N 39°39' E 025°43'  
2017-Jun-23 05:46N 39°56' E 025°55'5 8.3
2017-Jun-23 05:13N 39°52' E 025°51'3 8.3
2017-Jun-23 04:52N 39°50' E 025°49'4 8.8
2017-Jun-23 04:26N 39°46' E 025°47'164 9.3
2017-Jun-22 10:56N 37°21' E 024°11'4 9.0
2017-Jun-22 10:30N 37°18' E 024°07'5 8.8
2017-Jun-22 09:55N 37°15' E 024°03'4 9.1
2017-Jun-22 09:30N 37°12' E 023°59'4 8.9
2017-Jun-22 09:00N 37°09' E 023°56'15 9.4
2017-Jun-22 07:25N 36°58' E 023°43'425 9.1
2017-Jun-20 08:43N 36°28' E 014°54'210.1
2017-Jun-20 08:30N 36°28' E 014°51'510.3
2017-Jun-20 08:00N 36°28' E 014°45'510.3
2017-Jun-20 07:30N 36°28' E 014°39'510.0
2017-Jun-20 07:00N 36°29' E 014°33'5 9.9
2017-Jun-20 06:30N 36°30' E 014°27'5 9.8
2017-Jun-20 06:00N 36°32' E 014°21'5 9.7
2017-Jun-20 05:30N 36°33' E 014°15'5 9.7
2017-Jun-20 05:00N 36°35' E 014°09'5 9.7
2017-Jun-20 04:30N 36°36' E 014°04'5 9.8
2017-Jun-20 04:00N 36°38' E 013°58'5 9.7
2017-Jun-20 03:30N 36°40' E 013°52'5 9.5
2017-Jun-20 03:00N 36°41' E 013°47'5 9.4
2017-Jun-20 02:30N 36°42' E 013°41'5 9.4
2017-Jun-20 02:00N 36°44' E 013°35'5 9.4
2017-Jun-20 01:30N 36°45' E 013°30'5 9.3
2017-Jun-20 00:59N 36°46' E 013°24'5 9.5
2017-Jun-20 00:30N 36°48' E 013°19'5 9.3
2017-Jun-19 23:59N 36°49' E 013°13'5 9.5
2017-Jun-19 23:30N 36°50' E 013°07'5 9.5
2017-Jun-19 23:00N 36°52' E 013°02'5 9.5
2017-Jun-19 22:30N 36°53' E 012°56'5 9.7
2017-Jun-19 22:00N 36°55' E 012°50'12 9.8
2017-Jun-19 20:48N 36°60' E 012°37'10 9.4
2017-Jun-19 19:47N 37°02' E 012°25'3 9.4
2017-Jun-19 19:30N 37°03' E 012°22'148 9.4
2017-Jun-19 03:50N 37°36' E 009°21'314 9.4
2017-Jun-17 18:19N 37°32' E 002°45'8 9.2
2017-Jun-17 17:25N 37°32' E 002°35'  
Track history (hours):
 
Tides and Currents Weather Stations Pressure Air Temp Water Temp Dewpoint Dewpoint Depression Visibility Wind Speed Wind Dir Waves Ship Positions

Equality

Last reported at 2017-Jun-27 17:00 UTC. Time now 2017-Jun-28 19:31 UTC.
Position N 36°38' E 023°26'.

Length 124 m; draft 4.8 m.

Type: Cargo ship. MMSI: 450501000.

Date/timePositionNaut miles runAvg speedWind from/ knotsBaromVisibWave heightAir tempDewpointWater temp
2017-Jun-27 17:00N 36°38' E 023°26'5 9.5
2017-Jun-27 16:30N 36°42' E 023°30'5 9.5
2017-Jun-27 16:00N 36°46' E 023°33'5 9.5
2017-Jun-27 15:30N 36°50' E 023°36'5 9.6
2017-Jun-27 15:00N 36°53' E 023°40'10 9.5
2017-Jun-27 14:00N 37°01' E 023°48'5 9.5
2017-Jun-27 13:31N 37°04' E 023°52'5 9.8
2017-Jun-27 13:00N 37°08' E 023°56'510.3
2017-Jun-27 12:28N 37°12' E 024°00'167 8.7
2017-Jun-26 17:09N 39°39' E 025°43'  
2017-Jun-23 05:46N 39°56' E 025°55'5 8.3
2017-Jun-23 05:13N 39°52' E 025°51'3 8.3
2017-Jun-23 04:52N 39°50' E 025°49'4 8.8
2017-Jun-23 04:26N 39°46' E 025°47'164 9.3
2017-Jun-22 10:56N 37°21' E 024°11'4 9.0
2017-Jun-22 10:30N 37°18' E 024°07'5 8.8
2017-Jun-22 09:55N 37°15' E 024°03'4 9.1
2017-Jun-22 09:30N 37°12' E 023°59'4 8.9
2017-Jun-22 09:00N 37°09' E 023°56'15 9.4
2017-Jun-22 07:25N 36°58' E 023°43'425 9.1
2017-Jun-20 08:43N 36°28' E 014°54'210.1
2017-Jun-20 08:30N 36°28' E 014°51'510.3
2017-Jun-20 08:00N 36°28' E 014°45'510.3
2017-Jun-20 07:30N 36°28' E 014°39'510.0
2017-Jun-20 07:00N 36°29' E 014°33'5 9.9
2017-Jun-20 06:30N 36°30' E 014°27'5 9.8
2017-Jun-20 06:00N 36°32' E 014°21'5 9.7
2017-Jun-20 05:30N 36°33' E 014°15'5 9.7
2017-Jun-20 05:00N 36°35' E 014°09'5 9.7
2017-Jun-20 04:30N 36°36' E 014°04'5 9.8
2017-Jun-20 04:00N 36°38' E 013°58'5 9.7
2017-Jun-20 03:30N 36°40' E 013°52'5 9.5
2017-Jun-20 03:00N 36°41' E 013°47'5 9.4
2017-Jun-20 02:30N 36°42' E 013°41'5 9.4
2017-Jun-20 02:00N 36°44' E 013°35'5 9.4
2017-Jun-20 01:30N 36°45' E 013°30'5 9.3
2017-Jun-20 00:59N 36°46' E 013°24'5 9.5
2017-Jun-20 00:30N 36°48' E 013°19'5 9.3
2017-Jun-19 23:59N 36°49' E 013°13'5 9.5
2017-Jun-19 23:30N 36°50' E 013°07'5 9.5
2017-Jun-19 23:00N 36°52' E 013°02'5 9.5
2017-Jun-19 22:30N 36°53' E 012°56'5 9.7
2017-Jun-19 22:00N 36°55' E 012°50'12 9.8
2017-Jun-19 20:48N 36°60' E 012°37'10 9.4
2017-Jun-19 19:47N 37°02' E 012°25'3 9.4
2017-Jun-19 19:30N 37°03' E 012°22'148 9.4
2017-Jun-19 03:50N 37°36' E 009°21'314 9.4
2017-Jun-17 18:19N 37°32' E 002°45'8 9.2
2017-Jun-17 17:25N 37°32' E 002°35'  

Dump ship's entire track history